Time;durP1;ratioP1;P1;durP2;ratioP2;P2;SDS_P1;SDS_P2;PMS_P1;PMS_P2;Temp;Humidity;BMP_temperature;BMP_pressure;BME280_temperature;BME280_humidity;BME280_pressure;Samples;Min_cycle;Max_cycle;Signal;HPM_P1;HPM_P2
2024/01/10 00:13:40;;;;;;;60.73;25.70;;;;;;;-12.16;58.06;102027.97;32128573;27;20096;-67
2024/01/10 00:28:40;;;;;;;51.87;25.53;;;;;;;-12.17;57.84;102031.38;32125252;27;40546;-74
2024/01/10 00:43:41;;;;;;;56.17;26.80;;;;;;;-12.14;58.29;102016.84;32125600;27;41911;-60
2024/01/10 00:58:41;;;;;;;39.27;23.20;;;;;;;-12.35;58.42;102014.88;32147984;27;27859;-75
2024/01/10 01:13:41;;;;;;;36.77;21.00;;;;;;;-12.33;59.02;102025.19;32146157;27;20081;-71
2024/01/10 01:28:42;;;;;;;47.47;24.30;;;;;;;-12.31;59.14;102016.66;32145473;27;33270;-75
2024/01/10 01:43:42;;;;;;;40.80;20.80;;;;;;;-12.42;58.88;102010.53;32141379;27;20483;-65
2024/01/10 01:58:45;;;;;;;36.13;22.63;;;;;;;-12.38;59.01;101996.00;32142000;27;20100;-72
2024/01/10 02:13:45;;;;;;;44.73;25.43;;;;;;;-12.33;59.59;102004.63;32140504;27;20490;-70
2024/01/10 02:28:45;;;;;;;55.53;25.27;;;;;;;-12.40;59.70;101980.56;32139621;27;20579;-77
2024/01/10 02:43:46;;;;;;;38.60;20.60;;;;;;;-12.49;59.68;101990.72;32138540;27;20125;-76
2024/01/10 02:58:46;;;;;;;36.17;22.93;;;;;;;-12.52;59.82;101978.72;32135145;27;41776;-75
2024/01/10 03:13:48;;;;;;;42.37;25.63;;;;;;;-12.81;59.86;101975.72;32133347;27;42829;-75
2024/01/10 03:28:48;;;;;;;54.37;22.87;;;;;;;-12.79;60.39;101979.19;32133613;27;20173;-76
2024/01/10 03:43:50;;;;;;;35.03;21.83;;;;;;;-12.87;60.34;101991.91;32130780;27;20047;-75
2024/01/10 03:58:50;;;;;;;48.80;25.43;;;;;;;-13.14;60.42;101971.81;32126688;27;20042;-70
2024/01/10 04:13:50;;;;;;;44.87;25.47;;;;;;;-13.21;60.83;101962.31;32126418;27;40759;-65
2024/01/10 04:28:51;;;;;;;37.57;26.63;;;;;;;-13.28;60.80;101949.38;32141143;27;20034;-70
2024/01/10 04:43:51;;;;;;;53.30;25.73;;;;;;;-13.21;61.53;101944.38;32147542;27;20054;-76
2024/01/10 04:58:52;;;;;;;66.50;23.77;;;;;;;-13.18;61.02;101946.97;32122696;27;20106;-77
2024/01/10 05:13:52;;;;;;;41.07;22.50;;;;;;;-13.17;61.50;101943.56;32143716;27;43196;-70
2024/01/10 05:28:52;;;;;;;46.00;24.77;;;;;;;-13.16;61.67;101958.09;32022134;27;20039;-67
2024/01/10 05:43:53;;;;;;;28.40;24.47;;;;;;;-13.20;61.62;101956.31;32011362;27;42886;-75
2024/01/10 05:58:53;;;;;;;36.83;23.10;;;;;;;-13.22;61.24;101943.47;32010491;27;35442;-62
2024/01/10 06:13:53;;;;;;;36.57;22.67;;;;;;;-13.34;61.33;101961.25;32009139;27;40964;-70
2024/01/10 06:28:53;;;;;;;50.33;24.63;;;;;;;-13.33;61.53;101963.81;32007816;27;41526;-75
2024/01/10 06:43:54;;;;;;;40.60;22.50;;;;;;;-13.31;61.53;101954.47;32005683;27;20082;-66
2024/01/10 06:58:54;;;;;;;56.90;25.70;;;;;;;-13.29;61.70;101942.50;32005754;27;20062;-66
2024/01/10 07:13:54;;;;;;;36.57;27.03;;;;;;;-13.02;62.35;101941.22;32005807;27;20031;-73
2024/01/10 07:28:55;;;;;;;43.83;25.70;;;;;;;-12.45;62.67;101918.00;32003579;27;20039;-75
2024/01/10 07:43:55;;;;;;;40.80;28.03;;;;;;;-11.70;61.66;101894.75;31999290;27;43035;-69
2024/01/10 07:58:56;;;;;;;38.07;26.37;;;;;;;-10.56;61.96;101902.38;31996341;27;20031;-67
2024/01/10 08:13:56;;;;;;;62.07;33.20;;;;;;;-7.24;60.79;101916.16;31996799;27;20106;-75
2024/01/10 08:28:57;;;;;;;101.55;45.08;;;;;;;-2.87;56.02;101913.56;31994768;27;42852;-64
2024/01/10 08:43:57;;;;;;;98.43;46.65;;;;;;;0.61;49.49;101913.09;31994882;27;20043;-70
2024/01/10 08:58:57;;;;;;;126.85;55.60;;;;;;;3.88;44.38;101901.84;31993033;27;41421;-72
2024/01/10 09:13:59;;;;;;;113.15;54.45;;;;;;;5.86;40.72;101886.69;32003200;27;41940;-74
2024/01/10 09:29:00;;;;;;;117.30;60.03;;;;;;;7.40;36.86;101878.22;32011097;27;20054;-62
2024/01/10 09:44:00;;;;;;;125.57;63.80;;;;;;;9.22;33.75;101859.47;32010233;27;41820;-64
2024/01/10 09:59:04;;;;;;;117.93;60.17;;;;;;;12.88;30.02;101847.81;32010616;27;23933;-75
2024/01/10 10:14:15;;;;;;;119.38;62.15;;;;;;;15.45;25.54;101833.97;31898991;27;96621;-76
2024/01/10 10:29:19;;;;;;;108.57;61.93;;;;;;;16.48;23.60;101833.63;31973783;27;96530;-65
2024/01/10 10:44:24;;;;;;;109.43;64.65;;;;;;;18.99;21.03;101829.22;31979582;27;96597;-73
2024/01/10 10:59:26;;;;;;;109.20;64.73;;;;;;;20.90;19.21;101848.72;31905705;27;97055;-65
2024/01/10 11:14:34;;;;;;;107.82;62.47;;;;;;;20.82;18.07;101827.19;32003513;27;20418;-72
2024/01/10 11:29:38;;;;;;;96.47;60.22;;;;;;;21.84;16.79;101819.31;32000831;27;20043;-72
2024/01/10 11:44:51;;;;;;;101.95;65.93;;;;;;;23.26;15.69;101796.44;32001027;27;20047;-65
2024/01/10 11:59:53;;;;;;;101.32;66.80;;;;;;;24.09;15.13;101797.44;31998657;27;20027;-73
2024/01/10 12:14:53;;;;;;;107.40;67.15;;;;;;;23.55;14.85;101759.69;31980989;27;20033;-69
2024/01/10 12:29:54;;;;;;;96.75;62.50;;;;;;;22.44;14.88;101754.25;31995586;27;26280;-67
2024/01/10 12:44:54;;;;;;;97.97;59.17;;;;;;;22.22;14.43;101731.88;32000237;27;20051;-71
2024/01/10 12:59:54;;;;;;;;;;;;;;;21.98;14.29;101728.75;32017681;27;20039;-74
2024/01/10 13:14:55;;;;;;;108.53;60.20;;;;;;;20.05;15.63;101732.31;32016076;27;19922;-76
2024/01/10 13:29:55;;;;;;;107.00;59.10;;;;;;;17.57;16.52;101715.44;32012803;27;40306;-72
2024/01/10 13:44:55;;;;;;;107.72;60.10;;;;;;;15.97;16.97;101715.50;32008314;27;41607;-66
2024/01/10 13:59:55;;;;;;;116.75;59.33;;;;;;;12.82;19.11;101702.09;32008218;27;41605;-66
2024/01/10 14:14:56;;;;;;;126.57;66.82;;;;;;;10.52;21.24;101698.97;32045163;27;42792;-61
2024/01/10 14:29:56;;;;;;;140.93;71.88;;;;;;;6.49;24.62;101714.97;32057427;27;20042;-61
2024/01/10 14:44:56;;;;;;;135.52;62.22;;;;;;;1.85;29.06;101723.75;32055105;27;40234;-65
2024/01/10 14:59:57;;;;;;;141.60;59.35;;;;;;;-1.66;33.63;101724.50;32058326;27;41647;-62
2024/01/10 15:15:00;;;;;;;125.75;60.10;;;;;;;-3.76;37.31;101727.38;32120492;27;41390;-62
2024/01/10 15:30:01;;;;;;;140.48;55.25;;;;;;;-4.81;39.34;101724.69;32078264;27;20046;-66
2024/01/10 15:45:01;;;;;;;101.32;50.75;;;;;;;-5.79;41.18;101712.78;32047664;27;20047;-62
2024/01/10 16:00:03;;;;;;;128.18;58.42;;;;;;;-6.36;42.80;101710.31;32031313;27;20031;-62
2024/01/10 16:15:05;;;;;;;109.45;50.22;;;;;;;-6.80;43.97;101717.88;32032703;27;20483;-69
2024/01/10 16:30:05;;;;;;;121.40;56.03;;;;;;;-7.29;45.85;101706.44;32028633;27;20070;-67
2024/01/10 16:45:06;;;;;;;117.56;52.76;;;;;;;-7.46;46.33;101704.06;32036052;27;20100;-63
2024/01/10 17:00:08;;;;;;;117.50;51.13;;;;;;;-7.62;47.10;101707.69;32032824;27;20084;-66
2024/01/10 17:15:09;;;;;;;106.13;46.90;;;;;;;-7.84;48.46;101692.38;32021187;27;20039;-65
2024/01/10 17:30:09;;;;;;;108.28;59.84;;;;;;;-8.22;49.60;101688.44;32022545;27;20111;-68
2024/01/10 17:45:09;;;;;;;116.17;58.93;;;;;;;-8.37;49.82;101684.25;32046577;27;20096;-66
2024/01/10 18:00:10;;;;;;;109.97;57.00;;;;;;;-8.53;50.60;101661.16;32046190;27;41472;-65
2024/01/10 18:15:11;;;;;;;108.93;53.73;;;;;;;-8.70;50.62;101652.66;32050297;27;20054;-69
2024/01/10 18:30:11;;;;;;;111.53;55.57;;;;;;;-8.97;51.27;101641.63;32062127;27;20443;-65
2024/01/10 18:45:12;;;;;;;97.03;49.80;;;;;;;-8.98;51.32;101647.66;32045868;27;20365;-62
2024/01/10 19:00:14;;;;;;;110.27;51.27;;;;;;;-8.82;52.10;101642.41;32084263;27;20050;-66
2024/01/10 19:15:15;;;;;;;141.80;59.47;;;;;;;-8.71;52.32;101645.78;32123383;27;20045;-67
2024/01/10 19:30:20;;;;;;;128.33;58.40;;;;;;;-8.68;53.33;101648.31;32075854;27;20869;-63
2024/01/10 19:45:20;;;;;;;111.93;58.00;;;;;;;-8.74;52.40;101650.97;32105785;27;20476;-64
2024/01/10 20:00:21;;;;;;;131.67;62.63;;;;;;;-8.83;53.88;101630.38;32115838;27;20042;-63
2024/01/10 20:15:21;;;;;;;132.93;60.03;;;;;;;-8.92;52.98;101621.81;32116387;27;43198;-63
2024/01/10 20:30:21;;;;;;;101.70;51.07;;;;;;;-8.86;53.79;101615.75;32110780;27;20035;-65
2024/01/10 20:45:22;;;;;;;120.83;66.73;;;;;;;-9.10;54.98;101632.25;32114551;27;20504;-65
2024/01/10 21:00:24;;;;;;;133.27;62.37;;;;;;;-9.33;55.25;101624.63;32106900;27;20034;-68
2024/01/10 21:15:25;;;;;;;130.83;60.87;;;;;;;-9.42;54.83;101635.88;32102884;27;20118;-68
2024/01/10 21:30:25;;;;;;;103.87;58.20;;;;;;;-9.40;54.96;101635.00;32097583;27;20034;-64
2024/01/10 21:45:26;;;;;;;103.73;57.63;;;;;;;-9.34;55.83;101625.53;32064327;27;42170;-63
2024/01/10 22:00:26;;;;;;;144.47;72.33;;;;;;;-9.48;55.83;101629.03;32032837;27;43131;-69
2024/01/10 22:15:28;;;;;;;162.03;76.97;;;;;;;-9.52;55.96;101615.25;32026673;27;20087;-66
2024/01/10 22:30:28;;;;;;;162.27;74.13;;;;;;;-9.47;57.17;101614.38;32019968;27;20104;-68
2024/01/10 22:45:28;;;;;;;149.33;67.90;;;;;;;-9.51;56.47;101613.56;31974656;27;40889;-67
2024/01/10 23:00:29;;;;;;;130.53;68.93;;;;;;;-9.54;56.31;101605.81;31894313;27;41816;-68
2024/01/10 23:15:29;;;;;;;153.63;67.03;;;;;;;-9.57;57.23;101601.53;31894053;27;24616;-68
2024/01/10 23:30:30;;;;;;;113.43;61.13;;;;;;;-9.47;57.92;101561.06;31920858;27;42714;-64
2024/01/10 23:45:30;;;;;;;94.87;50.67;;;;;;;-9.72;58.45;101531.97;32014570;27;20046;-69
